Shao Shan 5 — VRKO9 — position and weather

sailwx.info

Track history (hours):
 
Tides and Currents Weather Stations Pressure Air Temp Water Temp Dewpoint Dewpoint Depression Visibility Wind Speed Wind Dir Waves Ship Positions

Shao Shan 5

Last reported at 2014-Oct-24 23:31 UTC. Time now 2014-Oct-24 23:58 UTC.
Position N 39°15' W 076°34'.

Length 225 m; draft 7.3 m.

Type: Cargo ship. MMSI: 477325700.

Date/timePositionNaut miles runAvg speedWind from/ knotsBaromVisibWave heightAir tempDewpointWater temp
2014-Oct-24 23:31N 39°15' W 076°34'0 0.0
2014-Oct-24 22:31N 39°15' W 076°34'0 0.0
2014-Oct-24 21:31N 39°15' W 076°34'0 0.0
2014-Oct-24 20:31N 39°15' W 076°34'0 0.0
2014-Oct-24 19:31N 39°15' W 076°34'0 0.0
2014-Oct-24 18:31N 39°15' W 076°34'0 0.0
2014-Oct-24 17:31N 39°15' W 076°34'0 0.0
2014-Oct-24 16:31N 39°15' W 076°34'0 0.0
2014-Oct-24 15:33N 39°15' W 076°34'4 3.5
2014-Oct-24 14:33N 39°13' W 076°31'1110.8
2014-Oct-24 13:33N 39°04' W 076°23'1313.1
2014-Oct-24 12:32N 38°50' W 076°25'3811.7
2014-Oct-24 09:18N 38°13' W 076°16'1013.3
2014-Oct-24 08:31N 38°03' W 076°13'  
2014-Oct-16 11:33N 36°31' W 030°30'1310.3
2014-Oct-16 10:18N 36°31' W 030°14'1910.4
2014-Oct-16 08:28N 36°31' W 029°50'7710.5
2014-Oct-16 01:09N 36°29' W 028°15'1710.4
2014-Oct-15 23:33N 36°29' W 027°55'1210.6
2014-Oct-15 22:23N 36°28' W 027°39'4611.9
2014-Oct-15 18:28N 36°28' W 026°41'1212.8
2014-Oct-15 17:34N 36°28' W 026°27'1312.8
2014-Oct-15 16:31N 36°27' W 026°10'1212.6
2014-Oct-15 15:33N 36°27' W 025°55'1312.8
2014-Oct-15 14:33N 36°26' W 025°39'1212.4
2014-Oct-15 13:33N 36°26' W 025°24'1212.2
2014-Oct-15 12:33N 36°26' W 025°09'1212.3
2014-Oct-15 11:33N 36°26' W 024°53'1212.5
2014-Oct-15 10:33N 36°26' W 024°38'1312.6
2014-Oct-15 09:33N 36°25' W 024°22'1212.4
2014-Oct-15 08:33N 36°25' W 024°07'1212.2
2014-Oct-15 07:33N 36°25' W 023°51'  
Track history (hours):
 
Tides and Currents Weather Stations Pressure Air Temp Water Temp Dewpoint Dewpoint Depression Visibility Wind Speed Wind Dir Waves Ship Positions

Shao Shan 5

Last reported at 2014-Oct-24 23:31 UTC. Time now 2014-Oct-24 23:58 UTC.
Position N 39°15' W 076°34'.

Length 225 m; draft 7.3 m.

Type: Cargo ship. MMSI: 477325700.

Date/timePositionNaut miles runAvg speedWind from/ knotsBaromVisibWave heightAir tempDewpointWater temp
2014-Oct-24 23:31N 39°15' W 076°34'0 0.0
2014-Oct-24 22:31N 39°15' W 076°34'0 0.0
2014-Oct-24 21:31N 39°15' W 076°34'0 0.0
2014-Oct-24 20:31N 39°15' W 076°34'0 0.0
2014-Oct-24 19:31N 39°15' W 076°34'0 0.0
2014-Oct-24 18:31N 39°15' W 076°34'0 0.0
2014-Oct-24 17:31N 39°15' W 076°34'0 0.0
2014-Oct-24 16:31N 39°15' W 076°34'0 0.0
2014-Oct-24 15:33N 39°15' W 076°34'4 3.5
2014-Oct-24 14:33N 39°13' W 076°31'1110.8
2014-Oct-24 13:33N 39°04' W 076°23'1313.1
2014-Oct-24 12:32N 38°50' W 076°25'3811.7
2014-Oct-24 09:18N 38°13' W 076°16'1013.3
2014-Oct-24 08:31N 38°03' W 076°13'  
2014-Oct-16 11:33N 36°31' W 030°30'1310.3
2014-Oct-16 10:18N 36°31' W 030°14'1910.4
2014-Oct-16 08:28N 36°31' W 029°50'7710.5
2014-Oct-16 01:09N 36°29' W 028°15'1710.4
2014-Oct-15 23:33N 36°29' W 027°55'1210.6
2014-Oct-15 22:23N 36°28' W 027°39'4611.9
2014-Oct-15 18:28N 36°28' W 026°41'1212.8
2014-Oct-15 17:34N 36°28' W 026°27'1312.8
2014-Oct-15 16:31N 36°27' W 026°10'1212.6
2014-Oct-15 15:33N 36°27' W 025°55'1312.8
2014-Oct-15 14:33N 36°26' W 025°39'1212.4
2014-Oct-15 13:33N 36°26' W 025°24'1212.2
2014-Oct-15 12:33N 36°26' W 025°09'1212.3
2014-Oct-15 11:33N 36°26' W 024°53'1212.5
2014-Oct-15 10:33N 36°26' W 024°38'1312.6
2014-Oct-15 09:33N 36°25' W 024°22'1212.4
2014-Oct-15 08:33N 36°25' W 024°07'1212.2
2014-Oct-15 07:33N 36°25' W 023°51'  

Dump ship's entire track history